Time;durP1;ratioP1;P1;durP2;ratioP2;P2;SDS_P1;SDS_P2;PMS_P1;PMS_P2;Temp;Humidity;BMP_temperature;BMP_pressure;BME280_temperature;BME280_humidity;BME280_pressure;Samples;Min_cycle;Max_cycle;Signal;HPM_P1;HPM_P2
2022/02/18 00:00:27;;;;;;;3.55;3.42;;;;;;;6.11;91.56;100745.50;6003670;23;20015;-66
2022/02/18 00:02:54;;;;;;;3.70;3.50;;;;;;;6.16;90.81;100741.00;6033620;23;20038;-66
2022/02/18 00:05:21;;;;;;;4.30;4.10;;;;;;;6.17;91.43;100733.16;6031290;23;20012;-67
2022/02/18 00:07:48;;;;;;;5.45;5.10;;;;;;;5.78;90.87;100670.16;6041029;23;20555;-66
2022/02/18 00:10:14;;;;;;;3.92;3.72;;;;;;;6.18;90.86;100727.00;6029035;23;20102;-67
2022/02/18 00:12:41;;;;;;;4.75;4.55;;;;;;;6.24;91.23;100728.56;6008222;23;20654;-67
2022/02/18 00:15:08;;;;;;;3.45;3.35;;;;;;;6.28;91.49;100731.94;6029551;23;20089;-64
2022/02/18 00:17:38;;;;;;;3.85;3.70;;;;;;;5.93;90.14;100664.44;6036640;23;20026;-64
2022/02/18 00:20:06;;;;;;;3.83;3.63;;;;;;;6.36;90.25;100733.34;6009385;23;20044;-65
2022/02/18 00:22:33;;;;;;;3.80;3.60;;;;;;;6.10;89.76;100689.09;6034392;23;20011;-65
2022/02/18 00:25:00;;;;;;;5.63;5.13;;;;;;;6.34;89.80;100735.16;6039915;23;20022;-65
2022/02/18 00:27:26;;;;;;;7.25;6.57;;;;;;;5.82;89.95;100650.06;6014379;23;20094;-64
2022/02/18 00:29:52;;;;;;;4.03;3.83;;;;;;;5.92;89.72;100652.31;6022069;23;20085;-63
2022/02/18 00:32:19;;;;;;;5.82;4.45;;;;;;;6.34;89.20;100729.13;6010904;23;20035;-65
2022/02/18 00:34:45;;;;;;;4.60;4.40;;;;;;;6.32;89.46;100726.56;6031498;23;20015;-65
2022/02/18 00:37:11;;;;;;;3.45;3.35;;;;;;;6.37;89.95;100729.00;6010180;23;20032;-65
2022/02/18 00:39:38;;;;;;;5.78;5.38;;;;;;;6.24;89.18;100697.28;6037744;23;20042;-65
2022/02/18 00:42:07;;;;;;;3.40;3.30;;;;;;;6.48;89.54;100711.22;6051707;23;20068;-65
2022/02/18 00:44:33;;;;;;;3.60;3.50;;;;;;;6.48;89.14;100710.41;6046989;23;20026;-64
2022/02/18 00:46:59;;;;;;;3.38;3.28;;;;;;;6.44;88.57;100714.00;6013085;23;20503;-65
2022/02/18 00:49:26;;;;;;;4.68;4.38;;;;;;;6.41;88.04;100709.72;6024232;23;20467;-64
2022/02/18 00:51:52;;;;;;;4.40;4.20;;;;;;;6.44;89.32;100708.81;5991774;23;20412;-64
2022/02/18 00:54:19;;;;;;;6.20;4.97;;;;;;;6.07;88.66;100655.31;6022312;23;20034;-64
2022/02/18 00:56:45;;;;;;;7.57;7.07;;;;;;;6.44;88.18;100714.84;6007130;23;20011;-65
2022/02/18 00:59:11;;;;;;;3.95;3.75;;;;;;;5.93;89.02;100632.31;6026409;23;20015;-64
2022/02/18 01:01:38;;;;;;;5.78;5.40;;;;;;;6.21;88.59;100676.53;6001752;23;20109;-64
2022/02/18 01:04:04;;;;;;;5.22;4.82;;;;;;;6.29;87.98;100697.13;6036498;23;20027;-65
2022/02/18 01:06:38;;;;;;;11.98;5.55;;;;;;;6.62;87.68;100722.94;6024118;23;20085;-65
2022/02/18 01:09:05;;;;;;;7.40;4.30;;;;;;;6.22;88.04;100673.03;6008018;23;20026;-64
2022/02/18 01:11:31;;;;;;;5.75;5.35;;;;;;;6.05;87.81;100628.47;6030941;23;20090;-64
2022/02/18 01:13:57;;;;;;;6.05;5.55;;;;;;;6.01;87.56;100626.88;6029212;23;20022;-64
2022/02/18 01:16:24;;;;;;;3.67;3.55;;;;;;;6.08;88.04;100638.81;6021797;23;20015;-64
2022/02/18 01:18:53;;;;;;;6.10;5.80;;;;;;;6.38;87.57;100692.44;6031095;23;20034;-64
2022/02/18 01:21:20;;;;;;;3.53;3.42;;;;;;;6.55;88.22;100691.00;6034985;23;20034;-64
2022/02/18 01:23:47;;;;;;;5.35;5.05;;;;;;;6.27;88.34;100658.09;6027539;23;20078;-64
2022/02/18 01:26:13;;;;;;;3.42;3.33;;;;;;;6.45;87.38;100685.25;6024524;23;20087;-66
2022/02/18 01:28:40;;;;;;;4.82;4.63;;;;;;;6.54;87.86;100673.69;6019813;23;20027;-65
2022/02/18 01:31:06;;;;;;;4.07;3.88;;;;;;;6.33;87.61;100650.03;5991576;23;20061;-63
2022/02/18 01:33:33;;;;;;;3.50;3.40;;;;;;;6.31;88.71;100640.59;6004265;23;20288;-64
2022/02/18 01:35:59;;;;;;;3.60;3.50;;;;;;;5.77;87.90;100585.97;5999834;23;20457;-63
2022/02/18 01:38:26;;;;;;;3.40;3.30;;;;;;;5.89;88.75;100591.66;6030708;23;20721;-65
2022/02/18 01:40:52;;;;;;;3.90;3.75;;;;;;;6.39;88.88;100664.63;5986310;23;20085;-65
2022/02/18 01:43:19;;;;;;;3.30;3.20;;;;;;;6.26;88.78;100632.09;6039375;23;20496;-64
2022/02/18 01:45:45;;;;;;;4.80;4.60;;;;;;;6.46;88.79;100650.47;6019963;23;20018;-64
2022/02/18 01:48:11;;;;;;;3.47;3.38;;;;;;;6.49;88.09;100647.75;6032818;23;20019;-64
2022/02/18 01:50:39;;;;;;;4.72;4.53;;;;;;;6.09;88.50;100584.00;6022636;23;20074;-64
2022/02/18 01:53:11;;;;;;;3.45;3.35;;;;;;;4.66;87.97;100352.09;6034738;23;20054;-64
2022/02/18 01:55:38;;;;;;;4.53;4.32;;;;;;;6.21;88.70;100607.94;6014677;23;20026;-64
2022/02/18 01:58:04;;;;;;;4.22;3.92;;;;;;;6.42;89.29;100630.63;6007529;23;20081;-64
2022/02/18 02:00:32;;;;;;;3.50;3.40;;;;;;;6.44;89.27;100626.22;6021410;23;20066;-63
2022/02/18 02:03:02;;;;;;;3.30;3.20;;;;;;;6.08;88.61;100561.50;6003077;23;20031;-65
2022/02/18 02:05:29;;;;;;;3.40;3.30;;;;;;;6.47;88.54;100618.28;6017404;23;20042;-65
2022/02/18 02:07:58;;;;;;;3.35;3.25;;;;;;;6.48;88.78;100617.38;6006979;23;20022;-64
2022/02/18 02:10:25;;;;;;;3.42;3.33;;;;;;;6.49;88.58;100628.66;6014451;23;20456;-65
2022/02/18 02:12:53;;;;;;;4.57;4.38;;;;;;;6.31;88.59;100596.28;6008248;23;20019;-64
2022/02/18 02:15:21;;;;;;;3.60;3.50;;;;;;;6.47;88.43;100620.03;6026475;23;20106;-63
2022/02/18 02:17:48;;;;;;;5.05;4.85;;;;;;;6.46;89.79;100624.41;6004563;23;20026;-65
2022/02/18 02:20:17;;;;;;;3.50;3.40;;;;;;;6.06;88.66;100562.47;6019815;23;20030;-66
2022/02/18 02:22:44;;;;;;;5.30;5.10;;;;;;;6.32;89.27;100595.41;5997639;23;20488;-64
2022/02/18 02:25:10;;;;;;;3.55;3.45;;;;;;;6.12;89.56;100557.03;6007168;23;20049;-65
2022/02/18 02:27:39;;;;;;;4.18;4.00;;;;;;;6.01;88.94;100531.34;6004236;23;20023;-64
2022/02/18 02:30:08;;;;;;;3.40;3.30;;;;;;;6.52;89.59;100613.75;6007663;23;20032;-64
2022/02/18 02:32:34;;;;;;;3.42;3.33;;;;;;;6.54;89.28;100608.50;6005519;23;20070;-63
2022/02/18 02:35:01;;;;;;;3.33;3.22;;;;;;;6.52;89.97;100608.53;6026861;23;20638;-65
2022/02/18 02:37:27;;;;;;;3.40;3.30;;;;;;;6.51;89.72;100599.00;6032069;23;20209;-65
2022/02/18 02:39:53;;;;;;;4.00;3.80;;;;;;;6.49;89.01;100597.38;6022800;23;20037;-65
2022/02/18 02:42:20;;;;;;;3.50;3.40;;;;;;;6.47;88.53;100592.19;6049080;23;20507;-64
2022/02/18 02:44:46;;;;;;;4.55;4.35;;;;;;;6.33;88.66;100566.66;6029316;23;20049;-64
2022/02/18 02:47:13;;;;;;;3.38;3.28;;;;;;;6.47;89.49;100567.91;6001604;23;20019;-64
2022/02/18 02:49:39;;;;;;;4.55;4.35;;;;;;;6.21;88.90;100535.81;6028032;23;20563;-65
2022/02/18 02:52:06;;;;;;;3.35;3.25;;;;;;;6.42;90.01;100560.25;6029148;23;20617;-65
2022/02/18 02:54:33;;;;;;;3.42;3.33;;;;;;;6.41;89.11;100544.66;6022290;23;20010;-66
2022/02/18 02:56:59;;;;;;;3.47;3.38;;;;;;;6.52;90.05;100539.91;5996332;23;20034;-65
2022/02/18 02:59:25;;;;;;;3.70;3.60;;;;;;;6.37;88.74;100512.66;6023907;23;20035;-65
2022/02/18 03:01:52;;;;;;;4.95;4.75;;;;;;;6.60;89.05;100543.06;6005780;23;20101;-65
2022/02/18 03:04:19;;;;;;;4.38;4.10;;;;;;;6.56;88.32;100537.13;6025521;23;20034;-64
2022/02/18 03:06:46;;;;;;;4.95;4.75;;;;;;;6.49;88.98;100516.56;5974507;23;20027;-64
2022/02/18 03:09:31;;;;;;;3.50;3.40;;;;;;;6.04;88.30;100440.06;6028157;23;20086;-64
2022/02/18 03:11:58;;;;;;;3.40;3.30;;;;;;;6.07;88.23;100428.66;6006839;23;20656;-64
2022/02/18 03:14:25;;;;;;;3.60;3.50;;;;;;;6.65;87.92;100514.22;6004949;23;20031;-66
2022/02/18 03:16:52;;;;;;;4.68;4.47;;;;;;;6.39;86.97;100464.78;6023670;23;20174;-67
2022/02/18 03:19:18;;;;;;;3.40;3.30;;;;;;;6.65;87.69;100491.59;6019524;23;20097;-63
2022/02/18 03:21:45;;;;;;;5.00;4.80;;;;;;;6.35;86.59;100447.56;6028823;23;20014;-64
2022/02/18 03:24:11;;;;;;;3.40;3.30;;;;;;;6.68;87.43;100482.81;6010934;23;20026;-65
2022/02/18 03:26:37;;;;;;;4.20;4.03;;;;;;;6.47;87.06;100472.28;6001130;23;20028;-64
2022/02/18 03:29:04;;;;;;;3.50;3.40;;;;;;;6.27;86.87;100413.13;6035229;23;20627;-63
2022/02/18 03:31:30;;;;;;;3.50;3.40;;;;;;;6.58;87.02;100458.84;6009010;23;20036;-64
2022/02/18 03:33:56;;;;;;;3.90;3.70;;;;;;;6.54;86.21;100455.50;5977343;23;20019;-64
2022/02/18 03:36:23;;;;;;;3.40;3.30;;;;;;;6.50;86.38;100448.72;6021274;23;20614;-65
2022/02/18 03:38:49;;;;;;;5.05;4.85;;;;;;;6.22;86.52;100401.19;6001537;23;20501;-64
2022/02/18 03:41:16;;;;;;;3.50;3.40;;;;;;;6.23;87.05;100398.50;6035058;23;20037;-64
2022/02/18 03:43:42;;;;;;;4.63;4.43;;;;;;;6.13;87.83;100405.00;5974207;23;20079;-65
2022/02/18 03:46:09;;;;;;;3.20;3.10;;;;;;;5.85;87.99;100348.69;6037059;23;20030;-63
2022/02/18 03:48:35;;;;;;;3.40;3.30;;;;;;;6.43;88.49;100441.19;6016169;23;20071;-64
2022/02/18 03:51:02;;;;;;;3.40;3.30;;;;;;;5.62;88.03;100322.72;6020184;23;20078;-65
2022/02/18 03:53:28;;;;;;;3.40;3.30;;;;;;;6.41;88.54;100437.81;5989061;23;20015;-64
2022/02/18 03:55:59;;;;;;;3.40;3.30;;;;;;;6.39;87.92;100435.25;6019107;23;20031;-64
2022/02/18 03:58:26;;;;;;;3.40;3.30;;;;;;;6.39;89.00;100430.03;6024458;23;20049;-66
2022/02/18 04:00:53;;;;;;;3.78;3.67;;;;;;;5.76;88.60;100325.63;5995269;23;20171;-64
2022/02/18 04:03:20;;;;;;;3.30;3.20;;;;;;;6.18;88.70;100382.22;6028971;23;20020;-63
2022/02/18 04:05:47;;;;;;;4.72;4.53;;;;;;;6.39;88.50;100407.44;5990895;23;20035;-64
2022/02/18 04:08:13;;;;;;;4.15;3.85;;;;;;;6.41;87.95;100409.97;6026206;23;20018;-64
2022/02/18 04:10:40;;;;;;;4.53;4.32;;;;;;;6.41;87.69;100402.16;5994666;23;20043;-63
2022/02/18 04:13:06;;;;;;;3.58;3.47;;;;;;;6.40;87.26;100397.88;6039881;23;20027;-66
2022/02/18 04:15:33;;;;;;;3.65;3.40;;;;;;;6.39;87.97;100388.34;6025219;23;20054;-64
2022/02/18 04:17:59;;;;;;;3.30;3.20;;;;;;;6.02;87.23;100329.03;6003455;23;20015;-63
2022/02/18 04:20:27;;;;;;;3.30;3.20;;;;;;;6.01;87.51;100333.38;6013227;23;19999;-64
2022/02/18 04:23:13;;;;;;;3.40;3.30;;;;;;;6.35;88.00;100378.94;5994571;23;20027;-64
2022/02/18 04:25:40;;;;;;;4.70;4.50;;;;;;;5.96;87.79;100323.13;6030418;23;20017;-64
2022/02/18 04:28:07;;;;;;;3.30;3.20;;;;;;;6.01;87.67;100316.91;6030713;23;20037;-64
2022/02/18 04:30:34;;;;;;;3.10;3.00;;;;;;;6.19;87.83;100344.81;6009162;23;20350;-64
2022/02/18 04:33:01;;;;;;;3.42;3.33;;;;;;;6.37;87.07;100364.09;6036927;23;20420;-64
2022/02/18 04:35:27;;;;;;;3.30;3.20;;;;;;;6.10;86.90;100314.78;6031947;23;20811;-64
2022/02/18 04:37:53;;;;;;;4.30;4.10;;;;;;;6.18;87.26;100333.56;6000256;23;20043;-65
2022/02/18 04:40:20;;;;;;;3.25;3.15;;;;;;;5.81;87.31;100263.81;5988058;23;20021;-64
2022/02/18 04:42:46;;;;;;;4.35;4.15;;;;;;;6.38;87.21;100347.56;5991448;23;20082;-64
2022/02/18 04:45:14;;;;;;;3.47;3.38;;;;;;;6.30;86.59;100307.94;5990074;23;20039;-65
2022/02/18 04:47:41;;;;;;;5.78;5.43;;;;;;;6.20;86.56;100294.41;6012101;23;20023;-64
2022/02/18 04:50:09;;;;;;;3.03;2.92;;;;;;;6.35;86.65;100306.84;5999807;23;20034;-65
2022/02/18 04:52:37;;;;;;;3.47;3.35;;;;;;;6.42;86.39;100283.97;5989125;23;20039;-65
2022/02/18 04:55:06;;;;;;;3.20;3.10;;;;;;;6.43;86.23;100276.97;5997039;23;20115;-65
2022/02/18 04:57:35;;;;;;;3.30;3.20;;;;;;;6.39;85.79;100279.72;6007634;23;20035;-65
2022/02/18 05:00:07;;;;;;;3.10;3.00;;;;;;;6.32;86.69;100269.63;5968836;23;20463;-65
2022/02/18 05:02:34;;;;;;;3.10;3.00;;;;;;;6.30;86.92;100267.06;6002775;23;20023;-64
2022/02/18 05:05:01;;;;;;;3.40;3.30;;;;;;;6.31;86.34;100263.53;5970480;23;20012;-64
2022/02/18 05:07:29;;;;;;;3.28;3.17;;;;;;;6.31;86.03;100266.16;6010175;23;20099;-65
2022/02/18 05:09:56;;;;;;;3.50;3.40;;;;;;;6.25;86.60;100244.72;5974897;23;20306;-65
2022/02/18 05:12:22;;;;;;;3.40;3.30;;;;;;;6.30;86.27;100248.00;5979157;23;20527;-65
2022/02/18 05:14:49;;;;;;;4.60;4.40;;;;;;;6.11;86.24;100219.22;5973615;23;20094;-64
2022/02/18 05:17:15;;;;;;;3.30;3.20;;;;;;;5.98;85.68;100180.66;5984152;23;20042;-64
2022/02/18 05:19:42;;;;;;;4.53;4.32;;;;;;;6.34;85.07;100215.69;5979155;23;20632;-64
2022/02/18 05:22:08;;;;;;;3.30;3.20;;;;;;;6.35;85.38;100220.84;6000248;23;20042;-64
2022/02/18 05:24:34;;;;;;;3.40;3.30;;;;;;;6.11;85.67;100181.00;6003337;23;20011;-64
2022/02/18 05:27:01;;;;;;;3.20;3.10;;;;;;;6.10;84.92;100147.22;5979439;23;20024;-65
2022/02/18 05:29:27;;;;;;;3.30;3.20;;;;;;;6.19;84.63;100159.84;6009646;23;20040;-65
2022/02/18 05:31:54;;;;;;;3.30;3.20;;;;;;;6.44;83.65;100177.88;6009524;23;20035;-65
2022/02/18 05:34:20;;;;;;;3.17;3.08;;;;;;;6.49;83.30;100178.50;6011744;23;20019;-64
2022/02/18 05:36:47;;;;;;;3.20;3.10;;;;;;;6.25;83.91;100117.88;6023013;23;20059;-64
2022/02/18 05:39:13;;;;;;;3.22;3.13;;;;;;;6.25;83.11;100127.47;6012849;23;20412;-63
2022/02/18 05:41:43;;;;;;;3.40;3.30;;;;;;;6.55;82.51;100161.75;6046723;23;20061;-66
2022/02/18 05:44:10;;;;;;;3.10;3.00;;;;;;;6.17;83.24;100099.13;6050341;23;20038;-65
2022/02/18 05:46:36;;;;;;;3.20;3.10;;;;;;;6.58;83.43;100143.38;6008771;23;20103;-66
2022/02/18 05:49:03;;;;;;;3.30;3.20;;;;;;;6.27;83.19;100099.56;6022374;23;20078;-64
2022/02/18 05:51:29;;;;;;;3.40;3.30;;;;;;;6.61;82.61;100147.59;5993656;23;20564;-65
2022/02/18 05:53:56;;;;;;;3.30;3.20;;;;;;;6.61;82.92;100137.19;5975979;23;20062;-63
2022/02/18 05:56:22;;;;;;;3.30;3.20;;;;;;;6.62;82.67;100133.66;6048766;23;20010;-63
2022/02/18 05:58:48;;;;;;;4.53;4.32;;;;;;;6.62;82.53;100131.91;6003227;23;20007;-66
2022/02/18 06:01:15;;;;;;;3.50;3.40;;;;;;;6.67;83.55;100132.53;6036838;23;20086;-65
2022/02/18 06:03:41;;;;;;;4.25;4.05;;;;;;;6.69;83.48;100115.03;5996960;23;20063;-65
2022/02/18 06:06:08;;;;;;;3.30;3.20;;;;;;;6.57;83.09;100093.00;6031785;23;20036;-68
2022/02/18 06:08:34;;;;;;;3.30;3.20;;;;;;;6.72;83.52;100094.06;6009258;23;20492;-64
2022/02/18 06:11:00;;;;;;;3.47;3.38;;;;;;;6.34;84.16;100025.44;6032525;23;20053;-64
2022/02/18 06:13:27;;;;;;;3.30;3.20;;;;;;;6.28;85.19;100010.91;6031697;23;20029;-65
2022/02/18 06:15:53;;;;;;;3.30;3.20;;;;;;;6.75;86.26;100085.25;6026853;23;20058;-65
2022/02/18 06:18:20;;;;;;;3.30;3.20;;;;;;;6.75;86.41;100095.69;6011777;23;20025;-65
2022/02/18 06:20:46;;;;;;;4.57;4.38;;;;;;;6.75;87.99;100070.44;6037197;23;20037;-65
2022/02/18 06:23:12;;;;;;;3.63;3.42;;;;;;;6.73;88.20;100069.66;6021383;23;20085;-65
2022/02/18 06:25:40;;;;;;;4.38;4.20;;;;;;;6.62;87.83;100056.28;5996759;23;20026;-66
2022/02/18 06:28:08;;;;;;;3.40;3.30;;;;;;;6.49;88.57;100029.94;6027638;23;20366;-65
2022/02/18 06:30:37;;;;;;;3.45;3.33;;;;;;;6.10;89.27;99960.50;6002900;23;20029;-64
2022/02/18 06:33:05;;;;;;;3.28;3.17;;;;;;;6.35;91.04;100001.91;6003935;23;20346;-66
2022/02/18 06:35:33;;;;;;;3.17;3.08;;;;;;;6.36;90.91;100001.00;6018338;23;20034;-65
2022/02/18 06:37:59;;;;;;;3.28;3.17;;;;;;;6.31;92.68;100002.94;6028942;23;20111;-66
2022/02/18 06:40:25;;;;;;;3.20;3.10;;;;;;;5.78;92.93;99897.66;6035517;23;20021;-66
2022/02/18 06:42:52;;;;;;;4.35;4.15;;;;;;;6.26;93.03;99985.84;6034753;23;20102;-66
2022/02/18 06:45:18;;;;;;;3.30;3.20;;;;;;;6.28;93.50;99978.81;6036410;23;20167;-64
2022/02/18 06:47:49;;;;;;;3.78;3.67;;;;;;;6.05;94.02;99941.59;5996024;23;20039;-65
2022/02/18 06:50:16;;;;;;;3.60;3.40;;;;;;;6.28;94.83;99963.19;6032018;23;20030;-65
2022/02/18 06:52:44;;;;;;;3.33;3.22;;;;;;;6.30;95.34;99962.19;6005813;23;20110;-64
2022/02/18 06:55:12;;;;;;;3.25;3.15;;;;;;;6.33;94.29;99955.97;6016183;23;20093;-65
2022/02/18 06:57:40;;;;;;;3.15;3.05;;;;;;;6.04;95.30;99881.78;6037036;23;20034;-64
2022/02/18 07:00:10;;;;;;;3.13;3.03;;;;;;;6.43;95.21;99928.56;6011870;23;20102;-65
2022/02/18 07:02:38;;;;;;;3.88;3.67;;;;;;;6.43;95.08;99931.16;6024040;23;20254;-65
2022/02/18 07:05:06;;;;;;;3.80;3.60;;;;;;;5.98;94.82;99843.84;6004325;23;20031;-65
2022/02/18 07:07:33;;;;;;;3.83;3.63;;;;;;;6.39;94.60;99909.66;6036132;23;20097;-65
2022/02/18 07:10:00;;;;;;;3.30;3.20;;;;;;;5.90;94.17;99828.56;5972828;23;20087;-65
2022/02/18 07:12:27;;;;;;;3.70;3.60;;;;;;;6.47;94.56;99887.56;6021723;23;20007;-64
2022/02/18 07:14:54;;;;;;;3.80;3.70;;;;;;;6.66;94.12;99905.78;6020980;23;20714;-65
2022/02/18 07:17:27;;;;;;;3.40;3.30;;;;;;;6.51;93.38;99878.69;5986533;23;20039;-65
2022/02/18 07:19:54;;;;;;;4.38;4.18;;;;;;;6.70;94.12;99899.50;5995764;23;20023;-65
2022/02/18 07:22:21;;;;;;;3.65;3.55;;;;;;;6.72;93.63;99884.63;5970816;23;20023;-65
2022/02/18 07:24:52;;;;;;;4.70;4.50;;;;;;;6.75;94.53;99889.66;6011223;23;20027;-65
2022/02/18 07:27:19;;;;;;;3.50;3.40;;;;;;;6.64;93.46;99861.53;6025084;23;20039;-65
2022/02/18 07:29:45;;;;;;;3.53;3.42;;;;;;;6.77;93.72;99872.19;5992386;23;20082;-65
2022/02/18 07:32:13;;;;;;;3.53;3.42;;;;;;;6.81;94.37;99872.88;6005453;23;20010;-65
2022/02/18 07:34:39;;;;;;;4.22;4.05;;;;;;;6.82;94.39;99849.34;5991608;23;20528;-65
2022/02/18 07:37:06;;;;;;;3.40;3.30;;;;;;;6.82;93.45;99846.72;6025925;23;20031;-64
2022/02/18 07:39:32;;;;;;;3.35;3.25;;;;;;;6.84;94.49;99846.66;5970162;23;20015;-65
2022/02/18 07:41:59;;;;;;;3.30;3.20;;;;;;;6.72;94.01;99817.66;6035397;23;20090;-65
2022/02/18 07:44:25;;;;;;;3.50;3.40;;;;;;;6.92;93.70;99839.28;6036387;23;20026;-64
2022/02/18 07:46:52;;;;;;;4.68;4.47;;;;;;;6.72;94.16;99783.75;5995165;23;20345;-65
2022/02/18 07:49:40;;;;;;;4.75;4.55;;;;;;;6.59;94.06;99754.00;6012040;23;20444;-64
2022/02/18 07:52:07;;;;;;;3.53;3.42;;;;;;;6.90;94.11;99779.38;5958817;23;20094;-65
2022/02/18 07:54:35;;;;;;;3.40;3.30;;;;;;;6.96;94.37;99779.06;6012095;23;20086;-65
2022/02/18 07:57:02;;;;;;;3.30;3.20;;;;;;;7.14;94.13;99795.50;5991910;23;20038;-65
2022/02/18 07:59:28;;;;;;;3.60;3.50;;;;;;;7.22;94.13;99789.88;6030611;23;20125;-65
2022/02/18 08:01:55;;;;;;;3.88;3.70;;;;;;;7.24;93.90;99787.22;5968736;23;20187;-64
2022/02/18 08:04:22;;;;;;;3.55;3.45;;;;;;;7.32;92.62;99780.66;5985451;23;20027;-64
2022/02/18 08:06:49;;;;;;;5.13;4.93;;;;;;;6.86;92.26;99690.94;5995755;23;20090;-65
2022/02/18 08:09:15;;;;;;;3.65;3.55;;;;;;;7.40;91.79;99759.34;5995206;23;20023;-65
2022/02/18 08:11:41;;;;;;;5.70;5.25;;;;;;;7.49;92.00;99760.63;5999368;23;20451;-64
2022/02/18 08:14:08;;;;;;;3.50;3.40;;;;;;;7.51;91.86;99749.16;6039483;23;20043;-64
2022/02/18 08:16:34;;;;;;;3.60;3.50;;;;;;;7.23;91.54;99681.97;6030866;23;20014;-65
2022/02/18 08:19:01;;;;;;;3.78;3.67;;;;;;;7.63;90.64;99742.41;5995985;23;21612;-65
2022/02/18 08:21:28;;;;;;;3.60;3.50;;;;;;;7.29;90.61;99676.41;6028499;23;20245;-64
2022/02/18 08:23:54;;;;;;;3.60;3.50;;;;;;;7.57;90.37;99719.25;5989597;23;20451;-64
2022/02/18 08:26:24;;;;;;;3.70;3.60;;;;;;;6.39;89.94;99510.06;6028485;23;20090;-64
2022/02/18 08:28:51;;;;;;;5.03;4.82;;;;;;;7.21;90.31;99634.22;5995067;23;20035;-64
2022/02/18 08:31:18;;;;;;;3.70;3.60;;;;;;;7.59;90.35;99681.69;6026424;23;20085;-68
2022/02/18 08:33:44;;;;;;;4.88;4.68;;;;;;;7.46;90.54;99659.81;6003181;23;20070;-64
2022/02/18 08:36:11;;;;;;;3.60;3.50;;;;;;;7.36;90.26;99637.78;6026655;23;20030;-64
2022/02/18 08:38:40;;;;;;;4.78;4.57;;;;;;;7.85;90.23;99702.88;6016326;23;20011;-65
2022/02/18 08:41:09;;;;;;;3.67;3.58;;;;;;;7.74;90.64;99673.94;6015621;23;20575;-65
2022/02/18 08:43:35;;;;;;;3.70;3.58;;;;;;;7.95;90.52;99697.97;6012729;23;20125;-63
2022/02/18 08:46:02;;;;;;;3.53;3.42;;;;;;;7.83;90.49;99670.78;6000696;23;20020;-64
2022/02/18 08:48:28;;;;;;;3.70;3.60;;;;;;;7.82;90.72;99655.19;6018300;23;20505;-64
2022/02/18 08:50:57;;;;;;;3.85;3.70;;;;;;;7.79;90.37;99643.16;6007910;23;20027;-65
2022/02/18 08:53:24;;;;;;;3.92;3.72;;;;;;;8.01;90.46;99661.03;6023552;23;20023;-64
2022/02/18 08:55:50;;;;;;;4.90;4.70;;;;;;;8.25;90.52;99668.38;5999100;23;20027;-64
2022/02/18 08:58:17;;;;;;;3.70;3.60;;;;;;;8.33;90.63;99674.84;6003002;23;20039;-64
2022/02/18 09:00:43;;;;;;;4.90;4.70;;;;;;;8.31;91.07;99640.09;6023881;23;20415;-64
2022/02/18 09:03:10;;;;;;;4.88;4.68;;;;;;;8.55;90.90;99658.72;5992696;23;20035;-64
2022/02/18 09:05:37;;;;;;;3.80;3.67;;;;;;;8.65;90.01;99660.78;6028136;23;20103;-64
2022/02/18 09:08:03;;;;;;;3.70;3.60;;;;;;;8.75;90.43;99652.28;6036562;23;20357;-66
2022/02/18 09:10:30;;;;;;;3.50;3.40;;;;;;;8.85;89.71;99655.19;6000207;23;20023;-65
2022/02/18 09:12:56;;;;;;;3.70;3.60;;;;;;;8.91;89.52;99644.34;6023839;23;20392;-64
2022/02/18 09:15:22;;;;;;;3.70;3.60;;;;;;;8.82;89.12;99612.66;6015175;23;20019;-65
2022/02/18 09:17:54;;;;;;;4.53;4.32;;;;;;;8.97;89.10;99627.41;5997115;23;20476;-63
2022/02/18 09:20:20;;;;;;;3.53;3.42;;;;;;;8.93;89.93;99599.75;6024771;23;20030;-64
2022/02/18 09:22:47;;;;;;;5.18;4.97;;;;;;;9.08;90.41;99601.41;5995050;23;20487;-64
2022/02/18 09:25:13;;;;;;;3.60;3.50;;;;;;;9.13;90.35;99601.13;6031210;23;20370;-64
2022/02/18 09:27:40;;;;;;;5.03;4.82;;;;;;;9.19;89.59;99592.88;5995851;23;20472;-65
2022/02/18 09:30:10;;;;;;;3.60;3.50;;;;;;;8.75;89.66;99531.97;6027909;23;20033;-64
2022/02/18 09:32:37;;;;;;;4.38;4.18;;;;;;;8.75;89.58;99524.09;5996935;23;20024;-64
2022/02/18 09:35:09;;;;;;;3.75;3.65;;;;;;;9.17;89.40;99582.50;6024785;23;20082;-65
2022/02/18 09:37:41;;;;;;;4.10;3.95;;;;;;;8.89;89.29;99525.84;5994674;23;20023;-64
2022/02/18 09:40:08;;;;;;;3.60;3.50;;;;;;;9.32;89.39;99585.91;6011385;23;20093;-64
2022/02/18 09:42:39;;;;;;;3.90;3.78;;;;;;;8.19;90.11;99400.41;6011478;23;20082;-63
2022/02/18 09:45:06;;;;;;;4.10;3.90;;;;;;;9.12;89.81;99526.13;6014164;23;20090;-63
2022/02/18 09:47:33;;;;;;;3.80;3.70;;;;;;;8.32;90.00;99406.53;5978812;23;20027;-63
2022/02/18 09:50:03;;;;;;;3.97;3.78;;;;;;;9.47;90.06;99549.19;6027781;23;20037;-64
2022/02/18 09:52:32;;;;;;;4.00;3.80;;;;;;;9.53;89.89;99547.00;6016925;23;20122;-64
2022/02/18 09:54:59;;;;;;;4.70;4.45;;;;;;;9.30;89.41;99504.00;5992228;23;20495;-63
2022/02/18 09:57:26;;;;;;;4.15;3.95;;;;;;;9.54;89.72;99532.09;6026825;23;20031;-64
2022/02/18 10:00:07;;;;;;;3.80;3.70;;;;;;;9.58;89.95;99518.72;5990106;23;20098;-65
2022/02/18 10:02:36;;;;;;;3.90;3.80;;;;;;;9.55;90.27;99508.44;6019578;23;20176;-65
2022/02/18 10:05:03;;;;;;;3.95;3.80;;;;;;;9.59;90.39;99503.84;6014279;23;20037;-65
2022/02/18 10:07:31;;;;;;;4.10;3.90;;;;;;;9.49;90.44;99473.97;6024151;23;20102;-64
2022/02/18 10:09:58;;;;;;;3.80;3.70;;;;;;;9.72;90.55;99512.56;6028608;23;20226;-65
2022/02/18 10:12:36;;;;;;;4.20;4.00;;;;;;;9.54;90.65;99483.22;5966640;23;20090;-64
2022/02/18 10:15:10;;;;;;;4.00;3.80;;;;;;;9.80;90.94;99498.91;5994126;23;20286;-65
2022/02/18 10:17:43;;;;;;;4.13;3.95;;;;;;;9.88;90.99;99496.63;5993474;23;20555;-64
2022/02/18 10:20:22;;;;;;;4.07;3.88;;;;;;;9.92;90.81;99494.63;6015425;23;20337;-65
2022/02/18 10:22:54;;;;;;;4.88;4.68;;;;;;;10.05;90.32;99495.47;5986178;23;20429;-65
2022/02/18 10:25:35;;;;;;;4.22;4.03;;;;;;;9.63;89.77;99415.41;6020190;23;20030;-65
2022/02/18 10:28:04;;;;;;;3.80;3.70;;;;;;;9.88;89.73;99441.59;6026096;23;20022;-65
2022/02/18 10:30:31;;;;;;;3.80;3.70;;;;;;;10.07;89.62;99441.13;5998459;23;20025;-65
2022/02/18 10:33:08;;;;;;;4.00;3.85;;;;;;;10.25;89.32;99470.47;5982492;23;20042;-65
2022/02/18 10:35:36;;;;;;;3.85;3.72;;;;;;;9.86;88.67;99388.47;6002741;23;20021;-65
2022/02/18 10:38:05;;;;;;;4.15;3.95;;;;;;;9.54;89.33;99322.59;6031980;23;20035;-65
2022/02/18 10:40:31;;;;;;;4.20;4.00;;;;;;;10.40;88.89;99446.75;6039654;23;20069;-66
2022/02/18 10:43:10;;;;;;;4.15;3.95;;;;;;;10.01;88.51;99375.22;6021824;23;20273;-65
2022/02/18 10:45:50;;;;;;;4.63;4.43;;;;;;;9.43;88.37;99270.97;6008673;23;20081;-65
2022/02/18 10:48:20;;;;;;;4.15;3.95;;;;;;;10.56;88.13;99440.31;6029761;23;20011;-65
2022/02/18 10:51:18;;;;;;;5.75;5.45;;;;;;;10.63;87.73;99439.88;6019232;23;20021;-65
2022/02/18 10:53:50;;;;;;;5.03;4.82;;;;;;;10.64;87.37;99421.38;6019156;23;20227;-66
2022/02/18 10:56:18;;;;;;;3.80;3.70;;;;;;;10.43;86.96;99373.13;6031297;23;20465;-65
2022/02/18 10:58:51;;;;;;;5.07;4.88;;;;;;;10.91;86.42;99402.75;5990950;23;20424;-66
2022/02/18 11:01:23;;;;;;;4.10;3.90;;;;;;;9.84;84.42;99201.66;6000014;23;20348;-65
2022/02/18 11:03:51;;;;;;;5.10;4.90;;;;;;;11.16;84.13;99390.41;5993702;23;20026;-65
2022/02/18 11:06:20;;;;;;;4.20;4.00;;;;;;;11.25;83.61;99391.53;6019141;23;20024;-64
2022/02/18 11:08:48;;;;;;;5.03;4.82;;;;;;;11.20;83.22;99368.22;5998322;23;20452;-65
2022/02/18 11:11:15;;;;;;;4.15;3.95;;;;;;;11.29;82.75;99372.78;6025721;23;20057;-65
2022/02/18 11:13:43;;;;;;;5.28;5.07;;;;;;;11.27;81.92;99348.44;5965906;23;20355;-65
2022/02/18 11:16:15;;;;;;;3.95;3.80;;;;;;;11.49;81.52;99362.53;5986517;23;20091;-65
2022/02/18 11:18:42;;;;;;;5.05;4.85;;;;;;;11.53;80.66;99328.03;5999658;23;20155;-66
2022/02/18 11:21:10;;;;;;;4.25;4.05;;;;;;;11.62;79.99;99347.47;6001023;23;20022;-65
2022/02/18 11:23:38;;;;;;;4.95;4.75;;;;;;;11.73;78.95;99336.13;6023813;23;20022;-64
2022/02/18 11:26:04;;;;;;;4.30;4.10;;;;;;;11.46;77.09;99266.38;6022080;23;20435;-63
2022/02/18 11:28:31;;;;;;;4.30;4.10;;;;;;;11.90;76.96;99322.50;6007137;23;20094;-64
2022/02/18 11:31:01;;;;;;;5.22;4.93;;;;;;;11.44;77.57;99242.03;5996497;23;20502;-63
2022/02/18 11:33:46;;;;;;;4.63;4.43;;;;;;;12.03;76.79;99288.19;6020487;23;20018;-64
2022/02/18 11:36:37;;;;;;;4.47;4.28;;;;;;;12.08;75.34;99274.66;5996240;23;20027;-64
2022/02/18 11:39:19;;;;;;;4.70;4.50;;;;;;;12.14;75.60;99277.63;6025785;23;20026;-63